sensor_id;sensor_type;location;lat;lon;timestamp;P1;durP1;ratioP1;P2;durP2;ratioP2
12296;SDS011;6211;49.124;9.152;2023-01-08T00:01:05;3.97;;;2.92;;
12296;SDS011;6211;49.124;9.152;2023-01-08T00:03:33;4.70;;;3.20;;
12296;SDS011;6211;49.124;9.152;2023-01-08T00:06:01;3.63;;;2.83;;
12296;SDS011;6211;49.124;9.152;2023-01-08T00:08:28;4.07;;;2.92;;
12296;SDS011;6211;49.124;9.152;2023-01-08T00:10:55;4.05;;;2.80;;
12296;SDS011;6211;49.124;9.152;2023-01-08T00:13:22;3.45;;;2.90;;
12296;SDS011;6211;49.124;9.152;2023-01-08T00:15:49;3.30;;;2.88;;
12296;SDS011;6211;49.124;9.152;2023-01-08T00:18:17;4.03;;;3.58;;
12296;SDS011;6211;49.124;9.152;2023-01-08T00:20:45;3.78;;;2.95;;
12296;SDS011;6211;49.124;9.152;2023-01-08T00:23:12;5.20;;;3.22;;
12296;SDS011;6211;49.124;9.152;2023-01-08T00:25:41;4.40;;;2.60;;
12296;SDS011;6211;49.124;9.152;2023-01-08T00:28:08;3.97;;;3.20;;
12296;SDS011;6211;49.124;9.152;2023-01-08T00:30:36;3.45;;;3.08;;
12296;SDS011;6211;49.124;9.152;2023-01-08T00:33:03;3.35;;;3.05;;
12296;SDS011;6211;49.124;9.152;2023-01-08T00:35:30;3.83;;;3.33;;
12296;SDS011;6211;49.124;9.152;2023-01-08T00:37:58;2.63;;;2.42;;
12296;SDS011;6211;49.124;9.152;2023-01-08T00:40:25;4.03;;;3.15;;
12296;SDS011;6211;49.124;9.152;2023-01-08T00:42:52;4.20;;;3.40;;
12296;SDS011;6211;49.124;9.152;2023-01-08T00:45:20;4.78;;;3.10;;
12296;SDS011;6211;49.124;9.152;2023-01-08T00:47:47;3.65;;;3.03;;
12296;SDS011;6211;49.124;9.152;2023-01-08T00:50:14;4.43;;;3.00;;
12296;SDS011;6211;49.124;9.152;2023-01-08T00:52:41;5.47;;;2.72;;
12296;SDS011;6211;49.124;9.152;2023-01-08T00:55:09;3.22;;;2.70;;
12296;SDS011;6211;49.124;9.152;2023-01-08T00:57:37;3.65;;;3.28;;
12296;SDS011;6211;49.124;9.152;2023-01-08T01:00:05;4.15;;;2.90;;
12296;SDS011;6211;49.124;9.152;2023-01-08T01:02:33;4.32;;;3.38;;
12296;SDS011;6211;49.124;9.152;2023-01-08T01:05:01;3.28;;;2.97;;
12296;SDS011;6211;49.124;9.152;2023-01-08T01:07:28;4.35;;;2.67;;
12296;SDS011;6211;49.124;9.152;2023-01-08T01:09:55;3.78;;;3.15;;
12296;SDS011;6211;49.124;9.152;2023-01-08T01:12:24;4.47;;;2.85;;
12296;SDS011;6211;49.124;9.152;2023-01-08T01:14:51;3.85;;;2.83;;
12296;SDS011;6211;49.124;9.152;2023-01-08T01:17:18;3.70;;;2.42;;
12296;SDS011;6211;49.124;9.152;2023-01-08T01:19:45;4.13;;;2.72;;
12296;SDS011;6211;49.124;9.152;2023-01-08T01:22:12;3.20;;;2.58;;
12296;SDS011;6211;49.124;9.152;2023-01-08T01:24:39;3.72;;;2.72;;
12296;SDS011;6211;49.124;9.152;2023-01-08T01:27:06;4.20;;;3.25;;
12296;SDS011;6211;49.124;9.152;2023-01-08T01:29:35;3.80;;;2.60;;
12296;SDS011;6211;49.124;9.152;2023-01-08T01:32:02;2.13;;;1.90;;
12296;SDS011;6211;49.124;9.152;2023-01-08T01:34:30;4.53;;;2.55;;
12296;SDS011;6211;49.124;9.152;2023-01-08T01:36:57;4.03;;;2.97;;
12296;SDS011;6211;49.124;9.152;2023-01-08T01:39:24;3.33;;;2.60;;
12296;SDS011;6211;49.124;9.152;2023-01-08T01:41:51;2.38;;;2.17;;
12296;SDS011;6211;49.124;9.152;2023-01-08T01:44:33;3.85;;;2.63;;
12296;SDS011;6211;49.124;9.152;2023-01-08T01:47:03;3.60;;;2.35;;
12296;SDS011;6211;49.124;9.152;2023-01-08T01:49:31;3.50;;;2.83;;
12296;SDS011;6211;49.124;9.152;2023-01-08T01:51:59;3.78;;;3.17;;
12296;SDS011;6211;49.124;9.152;2023-01-08T01:54:28;2.83;;;2.35;;
12296;SDS011;6211;49.124;9.152;2023-01-08T01:56:56;4.68;;;3.05;;
12296;SDS011;6211;49.124;9.152;2023-01-08T01:59:24;4.32;;;3.03;;
12296;SDS011;6211;49.124;9.152;2023-01-08T02:01:51;2.58;;;2.10;;
12296;SDS011;6211;49.124;9.152;2023-01-08T02:04:21;3.38;;;2.90;;
12296;SDS011;6211;49.124;9.152;2023-01-08T02:06:50;2.90;;;2.30;;
12296;SDS011;6211;49.124;9.152;2023-01-08T02:09:21;3.05;;;2.40;;
12296;SDS011;6211;49.124;9.152;2023-01-08T02:11:50;3.97;;;2.45;;
12296;SDS011;6211;49.124;9.152;2023-01-08T02:14:40;2.05;;;1.90;;
12296;SDS011;6211;49.124;9.152;2023-01-08T02:17:09;3.30;;;2.53;;
12296;SDS011;6211;49.124;9.152;2023-01-08T02:19:41;4.28;;;3.30;;
12296;SDS011;6211;49.124;9.152;2023-01-08T02:22:13;4.07;;;2.95;;
12296;SDS011;6211;49.124;9.152;2023-01-08T02:24:46;3.85;;;2.53;;
12296;SDS011;6211;49.124;9.152;2023-01-08T02:27:18;2.70;;;2.33;;
12296;SDS011;6211;49.124;9.152;2023-01-08T02:29:46;2.92;;;2.20;;
12296;SDS011;6211;49.124;9.152;2023-01-08T02:32:13;3.35;;;2.95;;
12296;SDS011;6211;49.124;9.152;2023-01-08T02:34:41;2.95;;;2.72;;
12296;SDS011;6211;49.124;9.152;2023-01-08T02:37:08;3.35;;;2.65;;
12296;SDS011;6211;49.124;9.152;2023-01-08T02:39:47;3.30;;;2.78;;
12296;SDS011;6211;49.124;9.152;2023-01-08T02:42:19;3.22;;;2.80;;
12296;SDS011;6211;49.124;9.152;2023-01-08T02:44:52;5.18;;;3.15;;
12296;SDS011;6211;49.124;9.152;2023-01-08T02:47:23;3.22;;;2.47;;
12296;SDS011;6211;49.124;9.152;2023-01-08T02:49:53;3.22;;;2.58;;
12296;SDS011;6211;49.124;9.152;2023-01-08T02:52:20;2.42;;;2.22;;
12296;SDS011;6211;49.124;9.152;2023-01-08T02:54:49;3.35;;;2.60;;
12296;SDS011;6211;49.124;9.152;2023-01-08T02:57:16;2.72;;;2.42;;
12296;SDS011;6211;49.124;9.152;2023-01-08T02:59:46;2.88;;;2.30;;
12296;SDS011;6211;49.124;9.152;2023-01-08T03:02:14;2.20;;;2.00;;
12296;SDS011;6211;49.124;9.152;2023-01-08T03:04:43;3.08;;;2.78;;
12296;SDS011;6211;49.124;9.152;2023-01-08T03:07:12;2.40;;;2.20;;
12296;SDS011;6211;49.124;9.152;2023-01-08T03:09:39;5.90;;;3.22;;
12296;SDS011;6211;49.124;9.152;2023-01-08T03:12:08;3.35;;;2.53;;
12296;SDS011;6211;49.124;9.152;2023-01-08T03:14:38;3.70;;;2.67;;
12296;SDS011;6211;49.124;9.152;2023-01-08T03:17:07;8.45;;;3.30;;
12296;SDS011;6211;49.124;9.152;2023-01-08T03:19:39;3.15;;;2.88;;
12296;SDS011;6211;49.124;9.152;2023-01-08T03:22:08;2.80;;;2.45;;
12296;SDS011;6211;49.124;9.152;2023-01-08T03:24:36;3.53;;;2.75;;
12296;SDS011;6211;49.124;9.152;2023-01-08T03:27:05;3.47;;;2.70;;
12296;SDS011;6211;49.124;9.152;2023-01-08T03:29:32;5.53;;;3.47;;
12296;SDS011;6211;49.124;9.152;2023-01-08T03:32:02;6.63;;;3.00;;
12296;SDS011;6211;49.124;9.152;2023-01-08T03:34:31;4.00;;;3.20;;
12296;SDS011;6211;49.124;9.152;2023-01-08T03:37:00;5.13;;;2.58;;
12296;SDS011;6211;49.124;9.152;2023-01-08T03:45:36;3.17;;;2.53;;
12296;SDS011;6211;49.124;9.152;2023-01-08T03:48:04;6.07;;;3.05;;
12296;SDS011;6211;49.124;9.152;2023-01-08T03:50:33;4.70;;;3.13;;
12296;SDS011;6211;49.124;9.152;2023-01-08T03:53:00;3.20;;;2.83;;
12296;SDS011;6211;49.124;9.152;2023-01-08T03:55:27;3.58;;;2.35;;
12296;SDS011;6211;49.124;9.152;2023-01-08T03:57:54;4.47;;;3.10;;
12296;SDS011;6211;49.124;9.152;2023-01-08T04:00:22;3.20;;;2.45;;
12296;SDS011;6211;49.124;9.152;2023-01-08T04:02:49;5.05;;;3.60;;
12296;SDS011;6211;49.124;9.152;2023-01-08T04:08:21;3.22;;;2.92;;
12296;SDS011;6211;49.124;9.152;2023-01-08T04:10:48;2.97;;;2.47;;
12296;SDS011;6211;49.124;9.152;2023-01-08T04:13:15;3.42;;;2.72;;
12296;SDS011;6211;49.124;9.152;2023-01-08T04:15:45;4.80;;;2.60;;
12296;SDS011;6211;49.124;9.152;2023-01-08T04:18:12;4.47;;;3.72;;
12296;SDS011;6211;49.124;9.152;2023-01-08T04:20:43;2.92;;;2.63;;
12296;SDS011;6211;49.124;9.152;2023-01-08T04:23:11;4.65;;;2.50;;
12296;SDS011;6211;49.124;9.152;2023-01-08T04:25:39;5.53;;;3.15;;
12296;SDS011;6211;49.124;9.152;2023-01-08T04:28:07;3.50;;;2.55;;
12296;SDS011;6211;49.124;9.152;2023-01-08T04:30:34;2.92;;;2.58;;
12296;SDS011;6211;49.124;9.152;2023-01-08T04:33:01;3.67;;;2.55;;
12296;SDS011;6211;49.124;9.152;2023-01-08T04:35:28;2.80;;;2.55;;
12296;SDS011;6211;49.124;9.152;2023-01-08T04:37:55;3.47;;;2.72;;
12296;SDS011;6211;49.124;9.152;2023-01-08T04:40:22;3.95;;;3.38;;
12296;SDS011;6211;49.124;9.152;2023-01-08T04:42:51;2.42;;;2.22;;
12296;SDS011;6211;49.124;9.152;2023-01-08T04:45:18;3.08;;;2.53;;
12296;SDS011;6211;49.124;9.152;2023-01-08T04:47:45;2.97;;;2.40;;
12296;SDS011;6211;49.124;9.152;2023-01-08T04:50:12;3.72;;;2.72;;
12296;SDS011;6211;49.124;9.152;2023-01-08T04:52:39;2.30;;;2.00;;
12296;SDS011;6211;49.124;9.152;2023-01-08T04:55:06;3.00;;;2.35;;
12296;SDS011;6211;49.124;9.152;2023-01-08T04:57:34;4.78;;;2.90;;
12296;SDS011;6211;49.124;9.152;2023-01-08T05:00:02;3.53;;;2.38;;
12296;SDS011;6211;49.124;9.152;2023-01-08T05:02:29;3.60;;;2.70;;
12296;SDS011;6211;49.124;9.152;2023-01-08T05:04:56;3.55;;;2.28;;
12296;SDS011;6211;49.124;9.152;2023-01-08T05:07:24;2.83;;;2.30;;
12296;SDS011;6211;49.124;9.152;2023-01-08T05:09:51;2.80;;;2.50;;
12296;SDS011;6211;49.124;9.152;2023-01-08T05:12:18;4.10;;;3.42;;
12296;SDS011;6211;49.124;9.152;2023-01-08T05:14:45;3.38;;;2.42;;
12296;SDS011;6211;49.124;9.152;2023-01-08T05:17:14;3.00;;;2.17;;
12296;SDS011;6211;49.124;9.152;2023-01-08T05:19:41;2.60;;;2.40;;
12296;SDS011;6211;49.124;9.152;2023-01-08T05:22:08;3.80;;;2.65;;
12296;SDS011;6211;49.124;9.152;2023-01-08T05:24:35;2.95;;;2.65;;
12296;SDS011;6211;49.124;9.152;2023-01-08T05:27:02;3.22;;;2.75;;
12296;SDS011;6211;49.124;9.152;2023-01-08T05:29:29;3.15;;;2.30;;
12296;SDS011;6211;49.124;9.152;2023-01-08T05:31:56;3.58;;;2.42;;
12296;SDS011;6211;49.124;9.152;2023-01-08T05:34:25;2.85;;;2.22;;
12296;SDS011;6211;49.124;9.152;2023-01-08T05:36:52;2.72;;;1.90;;
12296;SDS011;6211;49.124;9.152;2023-01-08T05:39:19;2.88;;;2.20;;
12296;SDS011;6211;49.124;9.152;2023-01-08T05:41:46;4.40;;;3.30;;
12296;SDS011;6211;49.124;9.152;2023-01-08T05:44:13;4.95;;;3.00;;
12296;SDS011;6211;49.124;9.152;2023-01-08T05:46:40;2.55;;;2.35;;
12296;SDS011;6211;49.124;9.152;2023-01-08T05:49:07;6.38;;;2.38;;
12296;SDS011;6211;49.124;9.152;2023-01-08T05:51:36;2.47;;;2.15;;
12296;SDS011;6211;49.124;9.152;2023-01-08T05:54:03;2.72;;;2.50;;
12296;SDS011;6211;49.124;9.152;2023-01-08T05:56:30;3.33;;;2.30;;
12296;SDS011;6211;49.124;9.152;2023-01-08T05:58:57;3.35;;;2.67;;
12296;SDS011;6211;49.124;9.152;2023-01-08T06:01:24;3.00;;;2.53;;
12296;SDS011;6211;49.124;9.152;2023-01-08T06:03:53;2.80;;;2.22;;
12296;SDS011;6211;49.124;9.152;2023-01-08T06:06:20;2.67;;;2.25;;
12296;SDS011;6211;49.124;9.152;2023-01-08T06:08:49;3.92;;;2.60;;
12296;SDS011;6211;49.124;9.152;2023-01-08T06:11:16;2.40;;;1.67;;
12296;SDS011;6211;49.124;9.152;2023-01-08T06:13:43;3.90;;;2.30;;
12296;SDS011;6211;49.124;9.152;2023-01-08T06:16:11;2.92;;;2.30;;
12296;SDS011;6211;49.124;9.152;2023-01-08T06:18:38;3.50;;;2.88;;
12296;SDS011;6211;49.124;9.152;2023-01-08T06:21:05;3.55;;;2.33;;
12296;SDS011;6211;49.124;9.152;2023-01-08T06:23:32;2.85;;;2.60;;
12296;SDS011;6211;49.124;9.152;2023-01-08T06:26:01;3.83;;;2.33;;
12296;SDS011;6211;49.124;9.152;2023-01-08T06:28:28;2.50;;;2.08;;
12296;SDS011;6211;49.124;9.152;2023-01-08T06:30:56;1.75;;;1.65;;
12296;SDS011;6211;49.124;9.152;2023-01-08T06:33:23;2.25;;;1.98;;
12296;SDS011;6211;49.124;9.152;2023-01-08T06:35:50;2.88;;;2.25;;
12296;SDS011;6211;49.124;9.152;2023-01-08T06:38:17;2.50;;;2.30;;
12296;SDS011;6211;49.124;9.152;2023-01-08T06:40:45;3.50;;;2.28;;
12296;SDS011;6211;49.124;9.152;2023-01-08T06:43:13;2.53;;;2.25;;
12296;SDS011;6211;49.124;9.152;2023-01-08T06:45:41;4.10;;;2.13;;
12296;SDS011;6211;49.124;9.152;2023-01-08T06:48:08;3.38;;;2.35;;
12296;SDS011;6211;49.124;9.152;2023-01-08T06:50:35;3.05;;;1.92;;
12296;SDS011;6211;49.124;9.152;2023-01-08T06:53:03;2.50;;;1.75;;
12296;SDS011;6211;49.124;9.152;2023-01-08T06:55:30;1.73;;;1.42;;
12296;SDS011;6211;49.124;9.152;2023-01-08T06:57:57;2.17;;;1.75;;
12296;SDS011;6211;49.124;9.152;2023-01-08T07:00:25;1.85;;;1.75;;
12296;SDS011;6211;49.124;9.152;2023-01-08T07:02:53;1.48;;;1.38;;
12296;SDS011;6211;49.124;9.152;2023-01-08T07:05:20;1.50;;;1.40;;
12296;SDS011;6211;49.124;9.152;2023-01-08T07:07:47;1.45;;;1.33;;
12296;SDS011;6211;49.124;9.152;2023-01-08T07:10:15;1.45;;;1.35;;
12296;SDS011;6211;49.124;9.152;2023-01-08T07:12:42;2.15;;;1.40;;
12296;SDS011;6211;49.124;9.152;2023-01-08T07:15:09;1.38;;;1.08;;
12296;SDS011;6211;49.124;9.152;2023-01-08T07:17:38;1.75;;;1.38;;
12296;SDS011;6211;49.124;9.152;2023-01-08T07:20:05;1.55;;;1.23;;
12296;SDS011;6211;49.124;9.152;2023-01-08T07:22:33;0.90;;;0.90;;
12296;SDS011;6211;49.124;9.152;2023-01-08T07:25:00;0.68;;;0.65;;
12296;SDS011;6211;49.124;9.152;2023-01-08T07:27:29;0.80;;;0.80;;
12296;SDS011;6211;49.124;9.152;2023-01-08T07:29:56;0.70;;;0.70;;
12296;SDS011;6211;49.124;9.152;2023-01-08T07:32:23;1.95;;;1.23;;
12296;SDS011;6211;49.124;9.152;2023-01-08T07:34:51;1.10;;;1.00;;
12296;SDS011;6211;49.124;9.152;2023-01-08T07:37:23;1.55;;;1.10;;
12296;SDS011;6211;49.124;9.152;2023-01-08T07:39:50;0.70;;;0.70;;
12296;SDS011;6211;49.124;9.152;2023-01-08T07:42:17;0.85;;;0.85;;
12296;SDS011;6211;49.124;9.152;2023-01-08T07:44:44;1.08;;;1.08;;
12296;SDS011;6211;49.124;9.152;2023-01-08T07:47:12;1.38;;;1.27;;
12296;SDS011;6211;49.124;9.152;2023-01-08T07:49:39;1.80;;;0.90;;
12296;SDS011;6211;49.124;9.152;2023-01-08T07:52:07;0.70;;;0.70;;
12296;SDS011;6211;49.124;9.152;2023-01-08T07:54:34;1.20;;;1.10;;
12296;SDS011;6211;49.124;9.152;2023-01-08T07:57:01;0.80;;;0.80;;
12296;SDS011;6211;49.124;9.152;2023-01-08T07:59:28;1.35;;;1.25;;
12296;SDS011;6211;49.124;9.152;2023-01-08T08:01:55;0.80;;;0.80;;
12296;SDS011;6211;49.124;9.152;2023-01-08T08:04:23;1.42;;;0.98;;
12296;SDS011;6211;49.124;9.152;2023-01-08T08:06:50;1.02;;;1.00;;
12296;SDS011;6211;49.124;9.152;2023-01-08T08:09:18;1.58;;;1.27;;
12296;SDS011;6211;49.124;9.152;2023-01-08T08:11:45;0.77;;;0.77;;
12296;SDS011;6211;49.124;9.152;2023-01-08T08:14:13;0.68;;;0.68;;
12296;SDS011;6211;49.124;9.152;2023-01-08T08:16:40;0.45;;;0.45;;
12296;SDS011;6211;49.124;9.152;2023-01-08T08:19:07;1.00;;;0.90;;
12296;SDS011;6211;49.124;9.152;2023-01-08T08:21:34;1.08;;;1.00;;
12296;SDS011;6211;49.124;9.152;2023-01-08T08:24:01;1.83;;;0.80;;
12296;SDS011;6211;49.124;9.152;2023-01-08T08:26:30;0.85;;;0.85;;
12296;SDS011;6211;49.124;9.152;2023-01-08T08:28:57;0.88;;;0.88;;
12296;SDS011;6211;49.124;9.152;2023-01-08T08:31:24;1.05;;;0.70;;
12296;SDS011;6211;49.124;9.152;2023-01-08T08:33:51;2.67;;;1.00;;
12296;SDS011;6211;49.124;9.152;2023-01-08T08:36:18;1.63;;;0.85;;
12296;SDS011;6211;49.124;9.152;2023-01-08T08:38:45;2.70;;;0.80;;
12296;SDS011;6211;49.124;9.152;2023-01-08T08:41:12;1.50;;;1.10;;
12296;SDS011;6211;49.124;9.152;2023-01-08T08:43:41;2.45;;;1.17;;
12296;SDS011;6211;49.124;9.152;2023-01-08T08:46:08;0.88;;;0.88;;
12296;SDS011;6211;49.124;9.152;2023-01-08T08:48:35;0.95;;;0.88;;
12296;SDS011;6211;49.124;9.152;2023-01-08T08:51:02;0.73;;;0.73;;
12296;SDS011;6211;49.124;9.152;2023-01-08T08:53:29;0.77;;;0.77;;
12296;SDS011;6211;49.124;9.152;2023-01-08T08:55:57;0.80;;;0.80;;
12296;SDS011;6211;49.124;9.152;2023-01-08T08:58:24;1.23;;;0.90;;
12296;SDS011;6211;49.124;9.152;2023-01-08T09:00:52;0.77;;;0.55;;
12296;SDS011;6211;49.124;9.152;2023-01-08T09:03:20;0.80;;;0.80;;
12296;SDS011;6211;49.124;9.152;2023-01-08T09:05:47;0.40;;;0.40;;
12296;SDS011;6211;49.124;9.152;2023-01-08T09:08:14;0.52;;;0.50;;
12296;SDS011;6211;49.124;9.152;2023-01-08T09:10:41;0.80;;;0.80;;
12296;SDS011;6211;49.124;9.152;2023-01-08T09:13:08;1.45;;;0.75;;
12296;SDS011;6211;49.124;9.152;2023-01-08T09:15:36;0.63;;;0.63;;
12296;SDS011;6211;49.124;9.152;2023-01-08T09:18:05;0.65;;;0.60;;
12296;SDS011;6211;49.124;9.152;2023-01-08T09:20:34;0.63;;;0.63;;
12296;SDS011;6211;49.124;9.152;2023-01-08T09:23:01;0.77;;;0.50;;
12296;SDS011;6211;49.124;9.152;2023-01-08T09:25:28;0.50;;;0.50;;
12296;SDS011;6211;49.124;9.152;2023-01-08T09:27:59;0.60;;;0.60;;
12296;SDS011;6211;49.124;9.152;2023-01-08T09:30:26;0.98;;;0.68;;
12296;SDS011;6211;49.124;9.152;2023-01-08T09:32:55;1.20;;;0.90;;
12296;SDS011;6211;49.124;9.152;2023-01-08T09:35:23;0.50;;;0.50;;
12296;SDS011;6211;49.124;9.152;2023-01-08T09:37:51;0.40;;;0.40;;
12296;SDS011;6211;49.124;9.152;2023-01-08T09:40:18;0.60;;;0.60;;
12296;SDS011;6211;49.124;9.152;2023-01-08T09:42:47;1.02;;;0.93;;
12296;SDS011;6211;49.124;9.152;2023-01-08T09:45:21;0.57;;;0.57;;
12296;SDS011;6211;49.124;9.152;2023-01-08T09:47:52;0.85;;;0.60;;
12296;SDS011;6211;49.124;9.152;2023-01-08T09:50:20;0.90;;;0.65;;
12296;SDS011;6211;49.124;9.152;2023-01-08T09:52:53;0.60;;;0.60;;
12296;SDS011;6211;49.124;9.152;2023-01-08T09:55:20;0.77;;;0.60;;
12296;SDS011;6211;49.124;9.152;2023-01-08T09:57:47;0.77;;;0.43;;
12296;SDS011;6211;49.124;9.152;2023-01-08T10:00:15;0.40;;;0.40;;
12296;SDS011;6211;49.124;9.152;2023-01-08T10:02:43;4.00;;;0.73;;
12296;SDS011;6211;49.124;9.152;2023-01-08T10:05:11;0.43;;;0.43;;
12296;SDS011;6211;49.124;9.152;2023-01-08T10:07:39;0.65;;;0.65;;
12296;SDS011;6211;49.124;9.152;2023-01-08T10:10:13;0.82;;;0.70;;
12296;SDS011;6211;49.124;9.152;2023-01-08T10:12:41;0.82;;;0.82;;
12296;SDS011;6211;49.124;9.152;2023-01-08T10:15:10;1.67;;;0.55;;
12296;SDS011;6211;49.124;9.152;2023-01-08T10:17:40;0.73;;;0.60;;
12296;SDS011;6211;49.124;9.152;2023-01-08T10:20:09;0.57;;;0.52;;
12296;SDS011;6211;49.124;9.152;2023-01-08T10:22:37;0.88;;;0.80;;
12296;SDS011;6211;49.124;9.152;2023-01-08T10:25:05;0.65;;;0.65;;
12296;SDS011;6211;49.124;9.152;2023-01-08T10:27:35;0.52;;;0.52;;
12296;SDS011;6211;49.124;9.152;2023-01-08T10:30:03;1.10;;;0.70;;
12296;SDS011;6211;49.124;9.152;2023-01-08T10:32:31;1.45;;;1.35;;
12296;SDS011;6211;49.124;9.152;2023-01-08T10:35:02;1.40;;;0.50;;
12296;SDS011;6211;49.124;9.152;2023-01-08T10:37:30;0.93;;;0.90;;
12296;SDS011;6211;49.124;9.152;2023-01-08T10:40:00;1.02;;;0.77;;
12296;SDS011;6211;49.124;9.152;2023-01-08T10:42:31;1.30;;;0.90;;
12296;SDS011;6211;49.124;9.152;2023-01-08T10:45:02;0.60;;;0.60;;
12296;SDS011;6211;49.124;9.152;2023-01-08T10:47:30;0.60;;;0.52;;
12296;SDS011;6211;49.124;9.152;2023-01-08T10:49:59;0.80;;;0.63;;
12296;SDS011;6211;49.124;9.152;2023-01-08T10:52:29;1.55;;;0.52;;
12296;SDS011;6211;49.124;9.152;2023-01-08T10:55:09;0.70;;;0.63;;
12296;SDS011;6211;49.124;9.152;2023-01-08T10:57:38;0.88;;;0.88;;
12296;SDS011;6211;49.124;9.152;2023-01-08T11:02:50;0.55;;;0.55;;
12296;SDS011;6211;49.124;9.152;2023-01-08T11:05:17;0.95;;;0.60;;
12296;SDS011;6211;49.124;9.152;2023-01-08T11:07:46;0.57;;;0.47;;
12296;SDS011;6211;49.124;9.152;2023-01-08T11:10:21;0.50;;;0.50;;
12296;SDS011;6211;49.124;9.152;2023-01-08T11:12:52;0.65;;;0.65;;
12296;SDS011;6211;49.124;9.152;2023-01-08T11:15:26;0.70;;;0.70;;
12296;SDS011;6211;49.124;9.152;2023-01-08T11:17:55;0.70;;;0.70;;
12296;SDS011;6211;49.124;9.152;2023-01-08T11:20:29;0.45;;;0.45;;
12296;SDS011;6211;49.124;9.152;2023-01-08T11:23:03;0.52;;;0.50;;
12296;SDS011;6211;49.124;9.152;2023-01-08T11:25:30;1.10;;;1.00;;
12296;SDS011;6211;49.124;9.152;2023-01-08T11:27:57;0.52;;;0.52;;
12296;SDS011;6211;49.124;9.152;2023-01-08T11:30:25;1.00;;;0.85;;
12296;SDS011;6211;49.124;9.152;2023-01-08T11:33:00;2.80;;;0.60;;
12296;SDS011;6211;49.124;9.152;2023-01-08T11:35:30;1.10;;;0.60;;
12296;SDS011;6211;49.124;9.152;2023-01-08T11:37:59;1.73;;;0.98;;
12296;SDS011;6211;49.124;9.152;2023-01-08T11:40:30;1.05;;;0.75;;
12296;SDS011;6211;49.124;9.152;2023-01-08T11:43:06;1.48;;;0.70;;
12296;SDS011;6211;49.124;9.152;2023-01-08T11:45:37;1.90;;;0.85;;
12296;SDS011;6211;49.124;9.152;2023-01-08T11:48:20;1.15;;;0.90;;
12296;SDS011;6211;49.124;9.152;2023-01-08T11:51:03;0.60;;;0.60;;
12296;SDS011;6211;49.124;9.152;2023-01-08T11:53:35;0.93;;;0.70;;
12296;SDS011;6211;49.124;9.152;2023-01-08T11:56:07;0.52;;;0.52;;
12296;SDS011;6211;49.124;9.152;2023-01-08T11:58:41;0.52;;;0.52;;
12296;SDS011;6211;49.124;9.152;2023-01-08T12:01:14;1.00;;;0.90;;
12296;SDS011;6211;49.124;9.152;2023-01-08T12:03:48;1.33;;;0.95;;
12296;SDS011;6211;49.124;9.152;2023-01-08T12:06:20;0.70;;;0.70;;
12296;SDS011;6211;49.124;9.152;2023-01-08T12:08:53;0.70;;;0.70;;
12296;SDS011;6211;49.124;9.152;2023-01-08T12:11:23;0.80;;;0.57;;
12296;SDS011;6211;49.124;9.152;2023-01-08T12:16:37;1.25;;;0.77;;
12296;SDS011;6211;49.124;9.152;2023-01-08T12:19:19;0.70;;;0.70;;
12296;SDS011;6211;49.124;9.152;2023-01-08T12:21:54;0.75;;;0.70;;
12296;SDS011;6211;49.124;9.152;2023-01-08T12:24:31;2.17;;;0.90;;
12296;SDS011;6211;49.124;9.152;2023-01-08T12:27:06;0.75;;;0.75;;
12296;SDS011;6211;49.124;9.152;2023-01-08T12:29:56;0.60;;;0.57;;
12296;SDS011;6211;49.124;9.152;2023-01-08T12:32:28;0.50;;;0.50;;
12296;SDS011;6211;49.124;9.152;2023-01-08T12:35:02;1.73;;;0.80;;
12296;SDS011;6211;49.124;9.152;2023-01-08T12:37:32;0.70;;;0.68;;
12296;SDS011;6211;49.124;9.152;2023-01-08T12:40:02;1.27;;;1.15;;
12296;SDS011;6211;49.124;9.152;2023-01-08T12:42:32;1.02;;;0.90;;
12296;SDS011;6211;49.124;9.152;2023-01-08T12:45:00;0.77;;;0.77;;
12296;SDS011;6211;49.124;9.152;2023-01-08T12:47:30;0.82;;;0.60;;
12296;SDS011;6211;49.124;9.152;2023-01-08T12:50:03;1.27;;;0.80;;
12296;SDS011;6211;49.124;9.152;2023-01-08T12:52:31;0.75;;;0.60;;
12296;SDS011;6211;49.124;9.152;2023-01-08T12:55:04;0.80;;;0.80;;
12296;SDS011;6211;49.124;9.152;2023-01-08T12:57:36;0.70;;;0.70;;
12296;SDS011;6211;49.124;9.152;2023-01-08T13:00:05;0.57;;;0.57;;
12296;SDS011;6211;49.124;9.152;2023-01-08T13:02:36;1.10;;;1.00;;
12296;SDS011;6211;49.124;9.152;2023-01-08T13:05:11;0.60;;;0.60;;
12296;SDS011;6211;49.124;9.152;2023-01-08T13:07:41;0.55;;;0.50;;
12296;SDS011;6211;49.124;9.152;2023-01-08T13:10:18;0.63;;;0.60;;
12296;SDS011;6211;49.124;9.152;2023-01-08T13:12:48;0.45;;;0.45;;
12296;SDS011;6211;49.124;9.152;2023-01-08T13:15:18;0.50;;;0.50;;
12296;SDS011;6211;49.124;9.152;2023-01-08T13:17:46;0.50;;;0.50;;
12296;SDS011;6211;49.124;9.152;2023-01-08T13:20:18;0.70;;;0.65;;
12296;SDS011;6211;49.124;9.152;2023-01-08T13:22:49;0.70;;;0.70;;
12296;SDS011;6211;49.124;9.152;2023-01-08T13:25:31;0.70;;;0.70;;
12296;SDS011;6211;49.124;9.152;2023-01-08T13:27:59;0.47;;;0.47;;
12296;SDS011;6211;49.124;9.152;2023-01-08T13:30:33;0.85;;;0.68;;
12296;SDS011;6211;49.124;9.152;2023-01-08T13:33:02;6.18;;;0.70;;
12296;SDS011;6211;49.124;9.152;2023-01-08T13:35:31;0.68;;;0.50;;
12296;SDS011;6211;49.124;9.152;2023-01-08T13:38:11;2.08;;;0.70;;
12296;SDS011;6211;49.124;9.152;2023-01-08T13:40:48;4.88;;;0.70;;
12296;SDS011;6211;49.124;9.152;2023-01-08T13:43:18;0.60;;;0.47;;
12296;SDS011;6211;49.124;9.152;2023-01-08T13:45:47;0.60;;;0.60;;
12296;SDS011;6211;49.124;9.152;2023-01-08T13:48:19;1.10;;;0.73;;
12296;SDS011;6211;49.124;9.152;2023-01-08T13:50:48;0.60;;;0.60;;
12296;SDS011;6211;49.124;9.152;2023-01-08T13:53:16;0.65;;;0.43;;
12296;SDS011;6211;49.124;9.152;2023-01-08T13:55:45;1.75;;;0.40;;
12296;SDS011;6211;49.124;9.152;2023-01-08T13:58:18;0.40;;;0.40;;
12296;SDS011;6211;49.124;9.152;2023-01-08T14:00:46;0.93;;;0.70;;
12296;SDS011;6211;49.124;9.152;2023-01-08T14:03:22;0.70;;;0.70;;
12296;SDS011;6211;49.124;9.152;2023-01-08T14:05:50;0.45;;;0.45;;
12296;SDS011;6211;49.124;9.152;2023-01-08T14:08:21;0.35;;;0.35;;
12296;SDS011;6211;49.124;9.152;2023-01-08T14:10:48;0.50;;;0.50;;
12296;SDS011;6211;49.124;9.152;2023-01-08T14:13:16;0.60;;;0.60;;
12296;SDS011;6211;49.124;9.152;2023-01-08T14:15:43;0.60;;;0.50;;
12296;SDS011;6211;49.124;9.152;2023-01-08T14:18:11;0.50;;;0.50;;
12296;SDS011;6211;49.124;9.152;2023-01-08T14:20:39;0.55;;;0.55;;
12296;SDS011;6211;49.124;9.152;2023-01-08T14:23:09;0.93;;;0.40;;
12296;SDS011;6211;49.124;9.152;2023-01-08T14:25:37;0.68;;;0.68;;
12296;SDS011;6211;49.124;9.152;2023-01-08T14:28:04;1.05;;;0.60;;
12296;SDS011;6211;49.124;9.152;2023-01-08T14:30:31;0.30;;;0.30;;
12296;SDS011;6211;49.124;9.152;2023-01-08T14:32:59;0.70;;;0.38;;
12296;SDS011;6211;49.124;9.152;2023-01-08T14:35:27;0.30;;;0.30;;
12296;SDS011;6211;49.124;9.152;2023-01-08T14:37:58;0.40;;;0.40;;
12296;SDS011;6211;49.124;9.152;2023-01-08T14:40:31;0.28;;;0.28;;
12296;SDS011;6211;49.124;9.152;2023-01-08T14:43:01;0.40;;;0.40;;
12296;SDS011;6211;49.124;9.152;2023-01-08T14:45:30;0.63;;;0.63;;
12296;SDS011;6211;49.124;9.152;2023-01-08T14:47:58;0.30;;;0.30;;
12296;SDS011;6211;49.124;9.152;2023-01-08T14:50:27;0.40;;;0.40;;
12296;SDS011;6211;49.124;9.152;2023-01-08T14:52:56;0.38;;;0.38;;
12296;SDS011;6211;49.124;9.152;2023-01-08T14:55:23;0.32;;;0.32;;
12296;SDS011;6211;49.124;9.152;2023-01-08T14:57:53;0.50;;;0.50;;
12296;SDS011;6211;49.124;9.152;2023-01-08T15:00:21;0.40;;;0.40;;
12296;SDS011;6211;49.124;9.152;2023-01-08T15:02:50;1.23;;;0.80;;
12296;SDS011;6211;49.124;9.152;2023-01-08T15:05:18;0.93;;;0.70;;
12296;SDS011;6211;49.124;9.152;2023-01-08T15:07:56;0.73;;;0.70;;
12296;SDS011;6211;49.124;9.152;2023-01-08T15:13:22;1.73;;;0.70;;
12296;SDS011;6211;49.124;9.152;2023-01-08T15:15:53;0.55;;;0.55;;
12296;SDS011;6211;49.124;9.152;2023-01-08T15:18:21;1.17;;;0.70;;
12296;SDS011;6211;49.124;9.152;2023-01-08T15:20:48;1.17;;;0.80;;
12296;SDS011;6211;49.124;9.152;2023-01-08T15:23:22;2.15;;;1.38;;
12296;SDS011;6211;49.124;9.152;2023-01-08T15:25:50;0.75;;;0.70;;
12296;SDS011;6211;49.124;9.152;2023-01-08T15:28:18;1.00;;;0.70;;